• Join FlightAware (Why Join?)
  • Login
  • US Flag 
05:40AM EDT


 

Airport Tracker/Info


-or-


 

Live Flight TrackerFlight Track Log ✈ TAM3785 ✈ 19-Aug-2013 ✈ SBFZ / FOR - SBBR / BSB

Flight Track Log - Related Links

Times and Time Zones

All times are in EDT time to prevent confusion due to time zone crossing. See the TAM3785 flight status page for this flight to view local times or setup timezone preferences in your user account.

Time Position Orientation Groundspeed Altitude Reporting Facility
EDT Latitude Longitude Course Direction KTS MPH feet Rate Location/Type
07:15PM -3.7740 -38.5400 45° Northeast 74 85  Level FlightAware
07:16PM -3.7780 -38.5270 107° East 155 178 1,260 Level FlightAware
07:16PM -3.7810 -38.5140 103° East 147 169 900 2,520 Climbing FlightAware
07:16PM -3.7850 -38.5010 107° East 143 165 1,700 2,040 Climbing FlightAware
07:17PM -3.7900 -38.4870 110° East 144 166 2,400 1,680 Climbing FlightAware
07:17PM -3.7920 -38.4850 135° Southeast 147 169 2,500 1,500 Climbing FlightAware
07:17PM -3.7980 -38.4830 162° South 151 174 2,700 1,320 Climbing FlightAware
07:17PM -3.8060 -38.4820 173° South 169 194 2,900 780 Climbing FlightAware
07:18PM -3.8230 -38.4950 217° Southwest 214 246 3,200 1,020 Climbing FlightAware
07:18PM -3.8260 -38.5030 249° West 219 252 3,500 2,400 Climbing FlightAware
07:18PM -3.8290 -38.5150 256° West 217 250 4,000 2,580 Climbing FlightAware
07:18PM -3.8320 -38.5340 261° West 212 244 4,900 2,040 Climbing FlightAware
07:19PM -3.8360 -38.5580 261° West 222 255 5,500 1,200 Climbing FlightAware
07:19PM -3.8390 -38.5760 261° West 250 288 5,700 1,020 Climbing FlightAware
07:19PM -3.8450 -38.6050 258° West 280 322 6,200 1,800 Climbing FlightAware
07:20PM -3.8510 -38.6330 258° West 289 333 7,100 2,700 Climbing FlightAware
07:20PM -3.8560 -38.6590 259° West 287 330 8,100 3,000 Climbing FlightAware
07:21PM -3.8630 -38.6910 258° West 285 328 9,300 2,340 Climbing FlightAware
07:21PM -3.8710 -38.7310 259° West 298 343 10,300 1,500 Climbing FlightAware
07:22PM -3.8830 -38.7850 257° West 337 388 11,000 1,860 Climbing FlightAware
07:22PM -3.8940 -38.8400 259° West 339 390 12,600 2,640 Climbing FlightAware
07:23PM -3.9080 -38.8920 255° West 335 386 14,100 2,280 Climbing FlightAware
07:23PM -3.9230 -38.9090 229° Southwest 341 392 14,500 1,080 Climbing FlightAware
07:24PM -3.9690 -38.9390 213° Southwest 366 421 15,000 1,380 Climbing FlightAware
07:24PM -4.0210 -38.9730 213° Southwest 371 427 16,100 1,980 Climbing FlightAware
07:25PM -4.0720 -39.0060 213° Southwest 368 423 17,400 1,920 Climbing FlightAware
07:25PM -4.1190 -39.0370 213° Southwest 374 430 18,300 1,500 Climbing FlightAware
07:26PM -4.1710 -39.0710 213° Southwest 384 442 19,100 1,380 Climbing FlightAware
07:27PM -4.2260 -39.1080 214° Southwest 390 449 20,000 1,200 Climbing FlightAware
07:27PM -4.2760 -39.1400 213° Southwest 403 464 20,500 1,020 Climbing FlightAware
07:28PM -4.3320 -39.1770 213° Southwest 412 474 21,200 1,140 Climbing FlightAware
07:28PM -4.3900 -39.2150 213° Southwest 417 480 21,900 1,140 Climbing FlightAware
07:29PM -4.4490 -39.2540 213° Southwest 424 488 22,600 1,320 Climbing FlightAware
07:29PM -4.5090 -39.2930 213° Southwest 427 491 23,500 1,320 Climbing FlightAware
07:30PM -4.5620 -39.3280 213° Southwest 431 496 24,100 1,140 Climbing FlightAware
07:31PM -4.6240 -39.3680 213° Southwest 437 503 24,800 1,080 Climbing FlightAware
07:31PM -4.6850 -39.4080 213° Southwest 442 509 25,400 1,020 Climbing FlightAware
07:32PM -4.7410 -39.4450 213° Southwest 446 513 26,000 1,200 Climbing FlightAware
07:32PM -4.8050 -39.4870 213° Southwest 445 512 26,800 1,200 Climbing FlightAware
07:33PM -4.8690 -39.5290 213° Southwest 449 517 27,500 1,140 Climbing FlightAware
07:34PM -4.9230 -39.5650 214° Southwest 451 519 28,100 1,080 Climbing FlightAware
07:34PM -4.9910 -39.6100 213° Southwest 454 522 28,800 900 Climbing FlightAware
07:35PM -5.0480 -39.6470 213° Southwest 460 529 29,200 780 Climbing FlightAware
07:35PM -5.1120 -39.6890 213° Southwest 464 534 29,700 780 Climbing FlightAware
07:36PM -5.1760 -39.7310 213° Southwest 469 540 30,200 900 Climbing FlightAware
07:36PM -5.2440 -39.7760 213° Southwest 470 541 30,800 1,020 Climbing FlightAware
07:37PM -5.3020 -39.8140 213° Southwest 469 540 31,400 960 Climbing FlightAware
07:38PM -5.3670 -39.8570 213° Southwest 471 542 31,900 480 Climbing FlightAware
07:38PM -5.4330 -39.9010 214° Southwest 472 543 32,000 60 Climbing FlightAware
07:39PM -5.4950 -39.9410 213° Southwest 471 542 32,000  Level FlightAware
07:39PM -5.5560 -39.9820 214° Southwest 467 537 32,000  Level FlightAware
07:40PM -5.6200 -40.0240 213° Southwest 464 534 32,000  Level FlightAware
07:41PM -5.6860 -40.0670 213° Southwest 462 532 32,000  Level FlightAware
07:41PM -5.7460 -40.1070 214° Southwest 462 532 32,000  Level FlightAware
07:42PM -5.8110 -40.1490 213° Southwest 462 532 32,000  Level FlightAware
07:42PM -5.8690 -40.1880 214° Southwest 462 532 32,000  Level FlightAware
07:43PM -5.9280 -40.2270 213° Southwest 464 534 32,000  Level FlightAware
07:43PM -5.9980 -40.2730 213° Southwest 464 534 32,000  Level FlightAware
07:44PM -6.0660 -40.3170 213° Southwest 464 534 32,000  Level FlightAware
07:45PM -6.1260 -40.3570 214° Southwest 464 534 32,000  Level FlightAware
07:45PM -6.1890 -40.3990 214° Southwest 465 535 32,000  Level FlightAware
07:46PM -6.2430 -40.4350 214° Southwest 465 535 32,000  Level FlightAware
07:46PM -6.3070 -40.4770 213° Southwest 465 535 32,000  Level FlightAware
07:47PM -6.3960 -40.5360 213° Southwest 466 536 32,000  Level FlightAware
07:48PM -6.4830 -40.5930 213° Southwest 466 536 32,000  Level FlightAware
07:49PM -6.5380 -40.6290 213° Southwest 466 536 32,000  Level FlightAware
07:49PM -6.6170 -40.6820 214° Southwest 469 540 32,000  Level FlightAware
07:50PM -6.6820 -40.7250 213° Southwest 470 541 32,000  Level FlightAware
07:51PM -6.7580 -40.7750 213° Southwest 469 540 32,000  Level FlightAware
07:51PM -6.8380 -40.8290 214° Southwest 469 540 32,000  Level FlightAware
07:52PM -6.8930 -40.8650 213° Southwest 469 540 32,000  Level FlightAware
07:52PM -6.9620 -40.9110 213° Southwest 470 541 32,000  Level FlightAware
07:53PM -7.0290 -40.9550 213° Southwest 470 541 32,000  Level FlightAware
07:54PM -7.0960 -41.0000 214° Southwest 470 541 32,000  Level FlightAware
07:54PM -7.1620 -41.0440 213° Southwest 470 541 32,000  Level FlightAware
07:55PM -7.2240 -41.0840 213° Southwest 470 541 32,000  Level FlightAware
07:55PM -7.2800 -41.1210 213° Southwest 470 541 32,000  Level FlightAware
07:56PM -7.3710 -41.1830 214° Southwest 469 540 32,000  Level FlightAware
07:57PM -7.4350 -41.2250 213° Southwest 469 540 32,000  Level FlightAware
07:57PM -7.4930 -41.2630 213° Southwest 470 541 32,000  Level FlightAware
07:58PM -7.5580 -41.3070 214° Southwest 471 542 32,000  Level FlightAware
07:58PM -7.6230 -41.3500 213° Southwest 472 543 32,000  Level FlightAware
07:59PM -7.7010 -41.4010 213° Southwest 472 543 32,000  Level FlightAware
08:00PM -7.7570 -41.4380 213° Southwest 472 543 32,000  Level FlightAware
08:00PM -7.8130 -41.4750 213° Southwest 472 543 32,000  Level FlightAware
08:01PM -7.9130 -41.5550 218° Southwest 470 541 32,000  Level FlightAware
08:02PM -7.9790 -41.6030 216° Southwest 470 541 32,000  Level FlightAware
08:02PM -8.0330 -41.6430 216° Southwest 470 541 32,000  Level FlightAware
08:03PM -8.0950 -41.6880 216° Southwest 470 541 32,000  Level FlightAware
08:03PM -8.1580 -41.7340 216° Southwest 469 540 32,000  Level FlightAware
08:04PM -8.2410 -41.7950 216° Southwest 468 539 32,000  Level FlightAware
08:05PM -8.2950 -41.8350 216° Southwest 468 539 32,000  Level FlightAware
08:05PM -8.3480 -41.8740 216° Southwest 468 539 32,000  Level FlightAware
08:06PM -8.4020 -41.9130 216° Southwest 468 539 32,000  Level FlightAware
08:07PM -8.4560 -41.9530 216° Southwest 468 539 32,000  Level FlightAware
08:07PM -8.5090 -41.9920 216° Southwest 468 539 32,000  Level FlightAware
08:08PM -8.5630 -42.0310 216° Southwest 468 539 32,000  Level FlightAware
08:08PM -8.6180 -42.0720 216° Southwest 468 539 32,000  Level FlightAware
08:09PM -8.6730 -42.1120 216° Southwest 468 539 32,000  Level FlightAware
08:10PM -8.7270 -42.1520 216° Southwest 468 539 32,000  Level FlightAware
08:10PM -8.7800 -42.1910 216° Southwest 468 539 32,000  Level FlightAware
08:11PM -8.8340 -42.2310 216° Southwest 468 539 32,000  Level FlightAware
08:12PM -8.8890 -42.2710 216° Southwest 468 539 32,000  Level FlightAware
08:12PM -8.9420 -42.3100 216° Southwest 468 539 32,000  Level FlightAware
08:13PM -8.9960 -42.3500 216° Southwest 468 539 32,000  Level FlightAware
08:13PM -9.0500 -42.3890 215° Southwest 468 539 32,000  Level FlightAware
08:16PM -9.2274 -42.5285 218° Southwest  Level Estimated
08:17PM -9.3080 -42.5919 218° Southwest  Level Estimated
08:18PM -9.3886 -42.6554 218° Southwest  Level Estimated
08:19PM -9.4692 -42.7189 218° Southwest  Level Estimated
08:20PM -9.5498 -42.7824 218° Southwest  Level Estimated
08:21PM -9.6304 -42.8460 218° Southwest  Level Estimated
08:22PM -9.7109 -42.9096 218° Southwest  Level Estimated
08:23PM -9.7915 -42.9732 218° Southwest  Level Estimated
08:24PM -9.8720 -43.0368 218° Southwest  Level Estimated
08:25PM -9.9525 -43.1005 218° Southwest  Level Estimated
08:26PM -10.0330 -43.1643 218° Southwest  Level Estimated
08:27PM -10.1135 -43.2280 218° Southwest  Level Estimated
08:28PM -10.1940 -43.2918 218° Southwest  Level Estimated
08:29PM -10.2745 -43.3556 218° Southwest  Level Estimated
08:30PM -10.3549 -43.4194 218° Southwest  Level Estimated
08:31PM -10.4354 -43.4833 218° Southwest  Level Estimated
08:32PM -10.5158 -43.5472 218° Southwest  Level Estimated
08:33PM -10.5963 -43.6112 218° Southwest  Level Estimated
08:34PM -10.6767 -43.6752 218° Southwest  Level Estimated
08:35PM -10.7571 -43.7392 218° Southwest  Level Estimated
08:36PM -10.8375 -43.8032 218° Southwest  Level Estimated
08:37PM -10.9178 -43.8673 218° Southwest  Level Estimated
08:38PM -10.9982 -43.9314 218° Southwest  Level Estimated
08:39PM -11.0785 -43.9956 218° Southwest  Level Estimated
08:40PM -11.1588 -44.0598 218° Southwest  Level Estimated
08:41PM -11.2392 -44.1240 218° Southwest  Level Estimated
08:42PM -11.3195 -44.1883 218° Southwest  Level Estimated
08:43PM -11.3998 -44.2525 218° Southwest  Level Estimated
08:44PM -11.4800 -44.3169 218° Southwest  Level Estimated
08:45PM -11.5603 -44.3812 218° Southwest  Level Estimated
08:46PM -11.6405 -44.4456 218° Southwest  Level Estimated
08:47PM -11.7208 -44.5101 218° Southwest  Level Estimated
08:48PM -11.8010 -44.5746 218° Southwest  Level Estimated
08:49PM -11.8812 -44.6391 218° Southwest  Level Estimated
08:50PM -11.9614 -44.7036 218° Southwest  Level Estimated
08:51PM -12.0416 -44.7682 218° Southwest  Level Estimated
08:52PM -12.1217 -44.8329 218° Southwest  Level Estimated
08:53PM -12.2019 -44.8975 218° Southwest  Level Estimated
08:54PM -12.2820 -44.9622 218° Southwest  Level Estimated
08:55PM -12.3621 -45.0270 218° Southwest  Level Estimated
08:56PM -12.4422 -45.0918 218° Southwest  Level Estimated
08:57PM -12.5223 -45.1566 218° Southwest  Level Estimated
08:58PM -12.6024 -45.2215 218° Southwest  Level Estimated
08:59PM -12.6824 -45.2864 218° Southwest  Level Estimated
09:00PM -12.7625 -45.3513 218° Southwest  Level Estimated
09:01PM -12.8425 -45.4163 218° Southwest  Level Estimated
09:02PM -12.9225 -45.4813 218° Southwest  Level Estimated
09:03PM -13.0025 -45.5464 218° Southwest  Level Estimated
09:04PM -13.0824 -45.6115 218° Southwest  Level Estimated
09:05PM -13.1624 -45.6767 218° Southwest  Level Estimated
09:06PM -13.2423 -45.7419 218° Southwest  Level Estimated
09:07PM -13.3223 -45.8071 218° Southwest  Level Estimated
09:08PM -13.4022 -45.8724 218° Southwest  Level Estimated
09:09PM -13.4821 -45.9378 218° Southwest  Level Estimated
09:10PM -13.5619 -46.0031 219° Southwest  Level Estimated
09:11PM -13.6418 -46.0685 219° Southwest  Level Estimated
09:12PM -13.7216 -46.1340 219° Southwest  Level Estimated
09:13PM -13.8015 -46.1995 219° Southwest  Level Estimated
09:14PM -13.8813 -46.2651 219° Southwest  Level Estimated
09:15PM -13.9611 -46.3307 219° Southwest  Level Estimated
09:16PM -14.0408 -46.3963 219° Southwest  Level Estimated
09:17PM -14.1206 -46.4620 219° Southwest  Level Estimated
09:17PM -15.0330 -47.0130 219° Southwest 392 451 32,000  Level FlightAware
09:17PM -15.0750 -47.0650 230° Southwest 399 459 30,500 -3,120 Descending FlightAware
09:18PM -15.1250 -47.1250 229° Southwest 422 486 28,100 -3,480 Descending FlightAware
09:18PM -15.1690 -47.1780 229° Southwest 420 483 26,200 -2,820 Descending FlightAware
09:19PM -15.2070 -47.2250 230° Southwest 411 473 25,100 -2,160 Descending FlightAware
09:20PM -15.2530 -47.2810 230° Southwest 395 455 23,700 -2,280 Descending FlightAware
09:20PM -15.3010 -47.3390 229° Southwest 387 445 22,100 -2,400 Descending FlightAware
09:21PM -15.3410 -47.3890 230° Southwest 380 437 20,700 -2,280 Descending FlightAware
09:21PM -15.3800 -47.4380 230° Southwest 370 426 19,500 -1,980 Descending FlightAware
09:22PM -15.4180 -47.4850 230° Southwest 361 415 18,400 -1,920 Descending FlightAware
09:23PM -15.4550 -47.5320 231° Southwest 352 405 17,300 -2,100 Descending FlightAware
09:23PM -15.4870 -47.5760 233° Southwest 350 403 16,000 -1,980 Descending FlightAware
09:24PM -15.5140 -47.6290 242° Southwest 342 394 15,000 -1,680 Descending FlightAware
09:24PM -15.5410 -47.6800 241° Southwest 335 386 14,100 -1,680 Descending FlightAware
09:25PM -15.5660 -47.7280 242° Southwest 329 379 13,100 -1,680 Descending FlightAware
09:26PM -15.5960 -47.7840 241° Southwest 329 379 12,000 -1,680 Descending FlightAware
09:26PM -15.6170 -47.8260 243° Southwest 328 377 11,200 -1,860 Descending FlightAware
09:27PM -15.6430 -47.8750 241° Southwest 326 375 10,000 -1,560 Descending FlightAware
09:27PM -15.6570 -47.9010 241° Southwest 299 344 9,800 -960 Descending FlightAware
09:28PM -15.6760 -47.9380 242° Southwest 287 330 9,200 -1,320 Descending FlightAware
09:28PM -15.6850 -47.9550 241° Southwest 285 328 8,800 -1,560 Descending FlightAware
09:28PM -15.6980 -47.9790 241° Southwest 283 326 8,300 -1,440 Descending FlightAware
09:28PM -15.7100 -48.0020 242° Southwest 284 327 7,900 -1,320 Descending FlightAware
09:29PM -15.7220 -48.0260 243° Southwest 285 328 7,400 -1,500 Descending FlightAware
09:29PM -15.7360 -48.0520 241° Southwest 286 329 6,900 -960 Descending FlightAware
09:30PM -15.7510 -48.0820 243° Southwest 288 331 6,700 -300 Descending FlightAware
09:30PM -15.7600 -48.0990 241° Southwest 283 326 6,700  Level FlightAware
09:30PM -15.7730 -48.1220 240° Southwest 261 300 6,700  Level FlightAware
09:30PM -15.7760 -48.1270 238° Southwest 253 291 6,700  Level FlightAware
09:30PM -15.7860 -48.1330 210° Southwest 241 277 6,700  Level FlightAware
09:31PM -15.7960 -48.1360 196° South 232 267 6,700 -600 Level FlightAware
09:31PM -15.8070 -48.1350 175° South 226 260 6,500 -840 Descending FlightAware
09:31PM -15.8270 -48.1300 166° South 222 255 6,300 -600 Descending FlightAware
09:31PM -15.8470 -48.1250 166° South 221 254 6,100 -540 Descending FlightAware
09:32PM -15.8620 -48.1200 162° South 225 259 6,000 -240 Descending FlightAware
09:32PM -15.8770 -48.1160 166° South 228 262 6,000  Level FlightAware
09:32PM -15.8820 -48.1130 150° Southeast 224 258 6,000  Level FlightAware
09:32PM -15.8870 -48.1050 123° Southeast 209 241 6,000  Level FlightAware
09:32PM -15.8880 -48.1000 102° East 202 232 6,000  Level FlightAware
09:32PM -15.8890 -48.0950 102° East 200 230 6,000 -840 Level FlightAware
09:32PM -15.8890 -48.0860 90° East 198 228 5,800 -1,080 Descending FlightAware
09:33PM -15.8890 -48.0680 90° East 187 215 5,500 -900 Descending FlightAware
09:33PM -15.8880 -48.0500 87° East 174 200 5,200 -900 Descending FlightAware
09:33PM -15.8870 -48.0360 86° East 157 181 4,900 -840 Descending FlightAware
09:34PM -15.8860 -48.0170 87° East 143 165 4,600 -780 Descending FlightAware
09:34PM -15.8850 -48.0070 84° East 141 162 4,400 -720 Descending FlightAware
09:34PM -15.8840 -47.9940 85° East 140 161 4,200 -600 Descending FlightAware
09:35PM -15.8840 -47.9870 90° East 140 161 4,100 -780 Descending FlightAware
09:35PM -15.8820 -47.9660 84° East 140 161 3,700 -720 Descending FlightAware
09:35PM -15.8820 -47.9530 90° East 139 160 3,500 -720 Descending FlightAware
09:36PM -15.8800 -47.9360 83° East 148 170 3,200 -300 Descending FlightAware
09:36PM -15.8790 -47.9150 87° East 144 166 3,200  Level FlightAware
09:39PM -15.8780 -47.9170 North 3,200  Level FlightAware
09:39PM -15.8626 -47.9127 North  Level Estimated